createdAt,value
2023-03-03T00:04:50.793Z,-0.20
2023-03-03T00:09:55.909Z,-0.20
2023-03-03T00:15:01.064Z,-0.20
2023-03-03T00:20:30.289Z,-0.20
2023-03-03T00:25:35.867Z,-0.30
2023-03-03T00:30:41.056Z,-0.40
2023-03-03T00:35:46.093Z,-0.40
2023-03-03T00:40:51.337Z,-0.40
2023-03-03T00:45:58.102Z,-0.40
2023-03-03T00:51:05.965Z,-0.40
2023-03-03T00:56:11.062Z,-0.50
2023-03-03T01:01:18.148Z,-0.40
2023-03-03T01:06:23.452Z,-0.50
2023-03-03T01:11:29.421Z,-0.50
2023-03-03T01:16:35.846Z,-0.50
2023-03-03T01:21:41.009Z,-0.50
2023-03-03T01:26:46.371Z,-0.50
2023-03-03T01:31:51.464Z,-0.50
2023-03-03T01:36:56.644Z,-0.50
2023-03-03T01:42:08.398Z,-0.60
2023-03-03T01:47:25.296Z,-0.50
2023-03-03T01:52:36.248Z,-0.60
2023-03-03T01:57:44.429Z,-0.50
2023-03-03T02:02:50.622Z,-0.60
2023-03-03T02:07:55.987Z,-0.60
2023-03-03T02:13:01.107Z,-0.70
2023-03-03T02:18:09.459Z,-0.70
2023-03-03T02:23:21.029Z,-0.70
2023-03-03T02:28:29.149Z,-0.60
2023-03-03T02:33:34.330Z,-0.70
2023-03-03T02:38:42.559Z,-0.70
2023-03-03T02:43:59.436Z,-0.70
2023-03-03T02:49:06.899Z,-0.60
2023-03-03T02:54:14.258Z,-0.70
2023-03-03T02:59:19.570Z,-0.70
2023-03-03T03:04:26.946Z,-0.70
2023-03-03T03:09:32.206Z,-0.70
2023-03-03T03:14:37.489Z,-0.80
2023-03-03T03:19:43.089Z,-0.80
2023-03-03T03:24:48.788Z,-0.80
2023-03-03T03:29:54.017Z,-0.80
2023-03-03T03:34:59.217Z,-0.80
2023-03-03T03:40:04.776Z,-0.80
2023-03-03T03:45:10.574Z,-0.80
2023-03-03T03:50:15.827Z,-0.80
2023-03-03T03:55:22.699Z,-0.80
2023-03-03T04:00:28.099Z,-0.80
2023-03-03T04:05:33.102Z,-0.80
2023-03-03T04:10:38.299Z,-0.80
2023-03-03T04:15:43.843Z,-0.90
2023-03-03T04:20:49.175Z,-0.90
2023-03-03T04:25:54.370Z,-0.90
2023-03-03T04:30:59.485Z,-0.90
2023-03-03T04:36:05.385Z,-0.90
2023-03-03T04:41:10.517Z,-0.90
2023-03-03T04:46:15.734Z,-0.90
2023-03-03T04:51:20.899Z,-0.90
2023-03-03T04:56:26.067Z,-0.90
2023-03-03T05:01:32.082Z,-0.90
2023-03-03T05:06:37.246Z,-0.90
2023-03-03T05:11:42.458Z,-0.90
2023-03-03T05:16:47.618Z,-0.90
2023-03-03T05:21:52.902Z,-0.90
2023-03-03T05:26:58.632Z,-0.90
2023-03-03T05:32:03.686Z,-0.90
2023-03-03T05:37:08.903Z,-0.90
2023-03-03T05:42:15.582Z,-0.80
2023-03-03T05:47:20.683Z,-0.80
2023-03-03T05:52:25.853Z,-0.80
2023-03-03T05:57:30.981Z,-0.80
2023-03-03T06:02:36.708Z,-0.80
2023-03-03T06:07:42.064Z,-0.80
2023-03-03T06:12:47.264Z,-0.80
2023-03-03T06:17:52.525Z,-0.70
2023-03-03T06:22:58.823Z,-0.60
2023-03-03T06:28:05.716Z,-0.60
2023-03-03T06:33:10.966Z,-0.60
2023-03-03T06:38:16.033Z,-0.60
2023-03-03T06:43:21.328Z,-0.60
2023-03-03T06:48:26.845Z,-0.50
2023-03-03T06:53:35.040Z,-0.50
2023-03-03T06:58:40.223Z,-0.50
2023-03-03T07:03:46.493Z,-0.50
2023-03-03T07:08:53.224Z,-0.50
2023-03-03T07:13:59.087Z,-0.50
2023-03-03T07:19:05.723Z,-0.50
2023-03-03T07:24:29.797Z,-0.50
2023-03-03T07:29:36.346Z,-0.40
2023-03-03T07:34:47.584Z,-0.40
2023-03-03T07:39:52.826Z,-0.40
2023-03-03T07:45:01.064Z,-0.30
2023-03-03T07:50:18.425Z,-0.30
2023-03-03T07:55:35.752Z,-0.20
2023-03-03T08:00:55.824Z,-0.20
2023-03-03T08:06:03.588Z,-0.10
2023-03-03T08:11:09.962Z,-0.10
2023-03-03T08:16:18.113Z,0.00
2023-03-03T08:21:25.320Z,0.10
2023-03-03T08:26:30.728Z,0.20
2023-03-03T08:31:41.747Z,0.10
2023-03-03T08:36:42.833Z,0.20
2023-03-03T08:41:48.062Z,0.30
2023-03-03T08:46:53.290Z,0.40
2023-03-03T08:51:58.497Z,0.40
2023-03-03T08:57:03.556Z,0.40
2023-03-03T09:02:09.378Z,0.50
2023-03-03T09:07:14.790Z,0.60
2023-03-03T09:12:23.026Z,0.80
2023-03-03T09:17:34.307Z,0.90
2023-03-03T09:22:41.884Z,1.00
2023-03-03T09:27:48.022Z,1.20
2023-03-03T09:32:54.231Z,1.30
2023-03-03T09:37:59.399Z,1.40
2023-03-03T09:43:26.972Z,1.50
2023-03-03T09:48:44.062Z,1.60
2023-03-03T09:54:01.015Z,1.80
2023-03-03T09:59:24.314Z,1.90
2023-03-03T10:05:05.799Z,2.00
2023-03-03T10:10:19.739Z,2.10
2023-03-03T10:15:45.531Z,2.30
2023-03-03T10:20:59.708Z,2.40
2023-03-03T10:26:13.421Z,2.40
2023-03-03T10:31:28.390Z,2.50
2023-03-03T10:36:34.796Z,2.60
2023-03-03T10:41:49.101Z,2.60
2023-03-03T10:47:32.048Z,2.70
2023-03-03T10:52:45.985Z,2.60
2023-03-03T10:58:11.714Z,2.50
2023-03-03T11:03:28.730Z,2.50
2023-03-03T11:08:49.017Z,2.60
2023-03-03T11:14:16.496Z,2.60
2023-03-03T11:19:39.619Z,2.70
2023-03-03T11:25:03.391Z,2.60
2023-03-03T11:30:16.575Z,2.60
2023-03-03T11:35:30.589Z,2.60
2023-03-03T11:40:56.980Z,2.70
2023-03-03T11:46:07.845Z,2.70
2023-03-03T11:51:16.040Z,2.80
2023-03-03T11:56:27.706Z,2.80
2023-03-03T12:01:38.566Z,2.80
2023-03-03T12:07:09.733Z,2.90
2023-03-03T12:12:12.921Z,2.90
2023-03-03T12:17:40.576Z,2.80
2023-03-03T12:23:07.257Z,2.90
2023-03-03T12:28:23.587Z,2.80
2023-03-03T12:33:54.178Z,2.80
2023-03-03T12:39:05.303Z,2.80
2023-03-03T12:44:37.469Z,2.90
2023-03-03T12:50:12.977Z,3.00
2023-03-03T12:55:55.947Z,3.00
2023-03-03T13:01:30.725Z,3.00
2023-03-03T13:06:55.709Z,3.10
2023-03-03T13:12:07.247Z,3.10
2023-03-03T13:17:51.687Z,3.20
2023-03-03T13:22:59.886Z,3.20
2023-03-03T13:28:24.124Z,3.20
2023-03-03T13:33:33.205Z,3.30
2023-03-03T13:38:50.473Z,3.30
2023-03-03T13:44:19.776Z,3.30
2023-03-03T13:49:58.048Z,3.30
2023-03-03T13:55:15.006Z,3.30
2023-03-03T14:00:46.969Z,3.30
2023-03-03T14:05:53.774Z,3.30
2023-03-03T14:11:13.517Z,3.30
2023-03-03T14:16:42.482Z,3.40
2023-03-03T14:22:09.287Z,3.40
2023-03-03T14:27:17.492Z,3.40
2023-03-03T14:32:39.430Z,3.50
2023-03-03T14:37:46.990Z,3.60
2023-03-03T14:42:59.730Z,3.60
2023-03-03T14:48:19.574Z,3.50
2023-03-03T14:53:33.754Z,3.40
2023-03-03T14:58:45.757Z,3.30
2023-03-03T15:03:59.919Z,3.20
2023-03-03T15:09:24.860Z,3.20
2023-03-03T15:14:35.751Z,3.20
2023-03-03T15:19:59.373Z,3.30
2023-03-03T15:25:41.725Z,3.30
2023-03-03T15:30:37.056Z,3.30
2023-03-03T15:35:54.341Z,3.20
2023-03-03T15:41:05.533Z,3.20
2023-03-03T15:46:22.878Z,3.10
2023-03-03T15:52:02.158Z,3.00
2023-03-03T15:57:19.370Z,2.90
2023-03-03T16:02:33.317Z,2.80
2023-03-03T16:07:56.483Z,2.70
2023-03-03T16:13:22.992Z,2.60
2023-03-03T16:18:40.813Z,2.60
2023-03-03T16:24:03.722Z,2.50
2023-03-03T16:29:23.656Z,2.40
2023-03-03T16:34:34.848Z,2.30
2023-03-03T16:39:56.651Z,2.30
2023-03-03T16:45:07.776Z,2.30
2023-03-03T16:50:21.539Z,2.20
2023-03-03T16:55:39.072Z,2.10
2023-03-03T17:00:56.716Z,2.00
2023-03-03T17:06:17.260Z,2.00
2023-03-03T17:11:45.298Z,1.90
2023-03-03T17:16:56.460Z,1.80
2023-03-03T17:22:13.456Z,1.80
2023-03-03T17:27:36.395Z,1.80
2023-03-03T17:33:14.807Z,1.80
2023-03-03T17:38:35.069Z,1.70
2023-03-03T17:44:01.617Z,1.60
2023-03-03T17:49:31.087Z,1.60
2023-03-03T17:54:44.826Z,1.50
2023-03-03T18:00:14.743Z,1.50
2023-03-03T18:05:22.863Z,1.40
2023-03-03T18:10:48.405Z,1.40
2023-03-03T18:16:22.698Z,1.30
2023-03-03T18:21:42.751Z,1.30
2023-03-03T18:26:48.023Z,1.30
2023-03-03T18:32:01.971Z,1.30
2023-03-03T18:37:17.933Z,1.30
2023-03-03T18:42:37.809Z,1.20
2023-03-03T18:48:05.164Z,1.20
2023-03-03T18:53:29.177Z,1.30
2023-03-03T18:58:41.798Z,1.40
2023-03-03T19:03:50.029Z,1.50
2023-03-03T19:08:58.358Z,1.50
2023-03-03T19:14:29.830Z,1.50
2023-03-03T19:19:38.750Z,1.60
2023-03-03T19:24:46.915Z,1.60
2023-03-03T19:30:10.260Z,1.70
2023-03-03T19:35:54.942Z,1.70
2023-03-03T19:41:04.856Z,1.90
2023-03-03T19:46:16.148Z,1.90
2023-03-03T19:51:24.392Z,2.00
2023-03-03T19:56:35.224Z,2.00
2023-03-03T20:02:00.134Z,2.10
2023-03-03T20:07:40.297Z,2.10
2023-03-03T20:13:07.844Z,2.10
2023-03-03T20:18:39.874Z,2.10
2023-03-03T20:23:51.100Z,2.10
2023-03-03T20:29:02.157Z,2.10
2023-03-03T20:34:29.504Z,2.20
2023-03-03T20:39:44.668Z,2.20
2023-03-03T20:44:58.838Z,2.30
2023-03-03T20:50:21.891Z,2.30
2023-03-03T20:55:42.049Z,2.30
2023-03-03T21:01:03.987Z,2.30
2023-03-03T21:06:16.770Z,2.30
2023-03-03T21:11:25.363Z,2.30
2023-03-03T21:16:33.038Z,2.30
2023-03-03T21:21:41.224Z,2.30
2023-03-03T21:26:55.125Z,2.20
2023-03-03T21:32:02.757Z,2.20
2023-03-03T21:37:14.333Z,2.20
2023-03-03T21:42:25.373Z,2.20
2023-03-03T21:47:30.683Z,2.20
2023-03-03T21:52:36.152Z,2.10
2023-03-03T21:57:41.420Z,2.20
2023-03-03T22:02:48.097Z,2.20
2023-03-03T22:07:53.394Z,2.20
2023-03-03T22:13:04.705Z,2.20
2023-03-03T22:18:09.861Z,2.20
2023-03-03T22:23:17.495Z,2.30
2023-03-03T22:28:24.403Z,2.30
2023-03-03T22:33:29.939Z,2.30
2023-03-03T22:38:35.238Z,2.30
2023-03-03T22:43:40.831Z,2.30
2023-03-03T22:48:46.098Z,2.30
2023-03-03T22:53:52.617Z,2.30
2023-03-03T22:58:59.449Z,2.40
2023-03-03T23:04:04.698Z,2.40
2023-03-03T23:09:09.821Z,2.40
2023-03-03T23:14:18.174Z,2.40
2023-03-03T23:19:23.470Z,2.40
2023-03-03T23:24:29.048Z,2.30
2023-03-03T23:29:37.263Z,2.30
2023-03-03T23:34:43.955Z,2.30
2023-03-03T23:39:49.174Z,2.30
2023-03-03T23:44:55.459Z,2.40
2023-03-03T23:50:01.148Z,2.40
2023-03-03T23:55:08.474Z,2.40
